Time;durP1;ratioP1;P1;durP2;ratioP2;P2;SDS_P1;SDS_P2;PMS_P1;PMS_P2;Temp;Humidity;BMP_temperature;BMP_pressure;BME280_temperature;BME280_humidity;BME280_pressure;Samples;Min_cycle;Max_cycle;Signal;HPM_P1;HPM_P2
2022/03/29 00:01:59;;;;;;;34.72;20.67;;;10.80;71.10;;;;;;4947298;28;20035;-75
2022/03/29 00:04:25;;;;;;;36.70;20.27;;;10.80;71.00;;;;;;4951745;28;20102;-75
2022/03/29 00:06:52;;;;;;;29.42;18.05;;;10.80;70.80;;;;;;4953725;28;20031;-76
2022/03/29 00:09:18;;;;;;;29.20;17.83;;;10.80;70.80;;;;;;4951755;28;20039;-75
2022/03/29 00:11:43;;;;;;;33.47;19.80;;;10.60;71.10;;;;;;4948460;28;20039;-75
2022/03/29 00:14:12;;;;;;;36.08;20.40;;;10.50;71.60;;;;;;4952164;28;20031;-76
2022/03/29 00:16:38;;;;;;;35.83;22.17;;;10.60;71.70;;;;;;4953518;28;20043;-75
2022/03/29 00:19:05;;;;;;;31.50;19.45;;;10.60;71.70;;;;;;4952662;28;20031;-76
2022/03/29 00:21:31;;;;;;;32.42;18.83;;;10.50;71.90;;;;;;4945809;28;20042;-75
2022/03/29 00:23:57;;;;;;;33.30;19.85;;;10.40;71.90;;;;;;4953113;28;20464;-75
2022/03/29 00:26:23;;;;;;;40.85;19.88;;;10.40;72.00;;;;;;4950324;28;20035;-75
2022/03/29 00:28:48;;;;;;;36.00;19.23;;;10.40;72.00;;;;;;4951712;28;20027;-76
2022/03/29 00:31:22;;;;;;;35.05;20.33;;;10.40;72.70;;;;;;4951306;28;20042;-75
2022/03/29 00:33:48;;;;;;;33.67;19.67;;;10.40;72.00;;;;;;4952540;28;20035;-76
2022/03/29 00:36:14;;;;;;;32.85;21.10;;;10.40;72.00;;;;;;4951241;28;20035;-75
2022/03/29 00:38:41;;;;;;;33.67;20.25;;;10.40;72.20;;;;;;4952613;28;20054;-75
2022/03/29 00:41:06;;;;;;;31.60;19.08;;;10.30;72.00;;;;;;4950501;28;20043;-75
2022/03/29 00:43:32;;;;;;;36.78;20.42;;;10.30;72.20;;;;;;4952604;28;20117;-75
2022/03/29 00:45:58;;;;;;;38.33;19.67;;;10.30;72.30;;;;;;4950395;28;20604;-76
2022/03/29 00:48:24;;;;;;;35.08;20.55;;;10.20;72.60;;;;;;4951745;28;20042;-75
2022/03/29 00:50:50;;;;;;;35.42;19.17;;;10.20;72.50;;;;;;4950444;28;20042;-76
2022/03/29 00:53:17;;;;;;;32.20;19.45;;;10.20;72.60;;;;;;4953144;28;20043;-75
2022/03/29 00:55:44;;;;;;;36.72;20.05;;;10.10;72.90;;;;;;4951691;28;20050;-78
2022/03/29 00:58:11;;;;;;;33.80;19.52;;;10.00;73.00;;;;;;4951448;28;20587;-75
2022/03/29 01:00:38;;;;;;;35.75;20.88;;;10.10;73.00;;;;;;4950182;28;20058;-75
2022/03/29 01:03:04;;;;;;;34.83;19.83;;;10.00;73.10;;;;;;4951717;28;20118;-75
2022/03/29 01:05:31;;;;;;;32.67;19.52;;;10.00;73.20;;;;;;4952078;28;20039;-75
2022/03/29 01:07:58;;;;;;;54.45;21.75;;;10.00;73.00;;;;;;4951256;28;20035;-75
2022/03/29 01:10:42;;;;;;;31.20;19.27;;;10.00;73.10;;;;;;4950853;28;20090;-75
2022/03/29 01:13:08;;;;;;;35.90;20.70;;;10.00;73.30;;;;;;4950060;28;20031;-75
2022/03/29 01:15:37;;;;;;;34.00;20.05;;;9.90;73.50;;;;;;4951057;28;20370;-75
2022/03/29 01:18:05;;;;;;;38.30;20.42;;;9.90;73.60;;;;;;4946193;28;20067;-75
2022/03/29 01:20:32;;;;;;;36.88;20.40;;;9.90;73.70;;;;;;4953022;28;20074;-75
2022/03/29 01:23:00;;;;;;;37.47;20.13;;;9.90;73.70;;;;;;4947541;28;20444;-75
2022/03/29 01:25:37;;;;;;;34.83;21.73;;;9.80;73.70;;;;;;4952244;28;20035;-76
2022/03/29 01:28:05;;;;;;;37.22;20.75;;;9.80;73.70;;;;;;4949436;28;20448;-75
2022/03/29 01:30:31;;;;;;;37.35;20.67;;;9.80;73.90;;;;;;4944776;28;20488;-75
2022/03/29 01:33:00;;;;;;;35.60;20.45;;;9.80;73.90;;;;;;4950462;28;20041;-76
2022/03/29 01:35:26;;;;;;;36.35;20.40;;;9.80;73.80;;;;;;4954396;28;20090;-76
2022/03/29 01:37:53;;;;;;;38.25;20.67;;;9.70;74.00;;;;;;4951746;28;20035;-77
2022/03/29 01:40:22;;;;;;;36.58;21.50;;;9.70;74.00;;;;;;4948580;28;20064;-75
2022/03/29 01:42:59;;;;;;;36.40;19.25;;;9.70;74.10;;;;;;4955404;28;20039;-75
2022/03/29 01:45:42;;;;;;;33.90;19.70;;;9.70;74.20;;;;;;4949590;28;20027;-76
2022/03/29 01:48:08;;;;;;;37.83;20.60;;;9.70;74.40;;;;;;4953417;28;20039;-75
2022/03/29 01:53:59;;;;;;;36.78;20.88;;;9.70;74.00;;;;;;4954052;28;20034;-76
2022/03/29 01:56:29;;;;;;;37.75;21.42;;;9.50;74.40;;;;;;4955707;28;20113;-76
2022/03/29 01:58:56;;;;;;;32.97;19.33;;;9.50;74.60;;;;;;4947930;28;20600;-76
2022/03/29 02:01:22;;;;;;;31.88;20.33;;;9.60;74.20;;;;;;4950868;28;20387;-77
2022/03/29 02:03:47;;;;;;;40.20;21.25;;;9.60;74.20;;;;;;4948423;28;20043;-77
2022/03/29 02:06:13;;;;;;;36.45;20.02;;;9.80;74.00;;;;;;4950943;28;20126;-76
2022/03/29 02:08:39;;;;;;;34.05;20.42;;;9.60;74.00;;;;;;4949736;28;20035;-76
2022/03/29 02:11:06;;;;;;;37.15;20.05;;;9.50;74.30;;;;;;4951061;28;20043;-76
2022/03/29 02:13:33;;;;;;;34.78;19.90;;;9.40;74.40;;;;;;4950321;28;20405;-75
2022/03/29 02:15:59;;;;;;;38.45;20.58;;;9.40;74.40;;;;;;4948714;28;20046;-76
2022/03/29 02:18:24;;;;;;;38.65;20.80;;;9.30;74.50;;;;;;4949779;28;20051;-75
2022/03/29 02:20:50;;;;;;;37.58;19.90;;;9.20;74.60;;;;;;4942885;28;20422;-76
2022/03/29 02:23:16;;;;;;;43.88;22.00;;;8.90;75.40;;;;;;4949549;28;20043;-75
2022/03/29 02:25:46;;;;;;;34.10;19.48;;;9.10;75.30;;;;;;4948985;28;20038;-76
2022/03/29 02:28:11;;;;;;;31.00;18.73;;;9.10;75.40;;;;;;4949366;28;20045;-75
2022/03/29 02:30:37;;;;;;;37.13;19.40;;;9.20;75.20;;;;;;4950621;28;20435;-75
2022/03/29 02:33:04;;;;;;;36.33;19.98;;;9.20;75.20;;;;;;4948669;28;20482;-76
2022/03/29 02:35:30;;;;;;;37.25;21.60;;;9.00;75.50;;;;;;4948810;28;20069;-75
2022/03/29 02:37:56;;;;;;;29.80;17.90;;;9.10;75.50;;;;;;4950142;28;20067;-75
2022/03/29 02:40:22;;;;;;;40.90;21.35;;;8.80;75.90;;;;;;4941509;28;20057;-75
2022/03/29 02:42:53;;;;;;;40.13;20.80;;;9.00;75.80;;;;;;4949701;28;20457;-76
2022/03/29 02:45:21;;;;;;;38.67;22.42;;;8.80;76.10;;;;;;4944617;28;20039;-76
2022/03/29 02:47:55;;;;;;;36.85;19.25;;;9.20;75.40;;;;;;4945247;28;20117;-76
2022/03/29 02:50:22;;;;;;;36.70;20.37;;;9.20;75.20;;;;;;4949815;28;20035;-76
2022/03/29 02:52:59;;;;;;;35.50;20.40;;;9.00;75.20;;;;;;4947521;28;20039;-75
2022/03/29 02:55:28;;;;;;;37.47;22.25;;;8.90;75.80;;;;;;4948462;28;20042;-76
2022/03/29 02:57:54;;;;;;;32.42;20.75;;;8.90;76.20;;;;;;4948643;28;20114;-76
2022/03/29 03:00:20;;;;;;;38.03;21.35;;;9.10;75.60;;;;;;4948809;28;20031;-75
2022/03/29 03:02:48;;;;;;;33.03;19.67;;;9.10;75.50;;;;;;4948908;28;20047;-75
2022/03/29 03:05:14;;;;;;;37.67;21.08;;;9.10;75.50;;;;;;4949320;28;20062;-75
2022/03/29 03:07:42;;;;;;;36.55;21.00;;;9.30;75.30;;;;;;4948315;28;20039;-75
2022/03/29 03:10:09;;;;;;;34.72;19.42;;;9.40;74.80;;;;;;4942279;28;20071;-75
2022/03/29 03:12:39;;;;;;;33.25;19.98;;;9.30;75.10;;;;;;4946208;28;20050;-75
2022/03/29 03:15:07;;;;;;;38.03;20.25;;;9.30;75.20;;;;;;4949837;28;20089;-75
2022/03/29 03:17:33;;;;;;;38.92;21.38;;;9.50;74.80;;;;;;4943752;28;20042;-75
2022/03/29 03:19:59;;;;;;;36.15;20.40;;;9.50;74.60;;;;;;4945505;28;20034;-75
2022/03/29 03:22:25;;;;;;;36.65;21.27;;;9.40;74.50;;;;;;4944271;28;20031;-75
2022/03/29 03:25:10;;;;;;;34.92;19.35;;;9.30;74.90;;;;;;4947420;28;20042;-76
2022/03/29 03:27:36;;;;;;;39.75;20.67;;;9.20;75.00;;;;;;4939323;28;20035;-75
2022/03/29 03:30:08;;;;;;;38.33;20.00;;;9.30;74.20;;;;;;4943286;28;20041;-75
2022/03/29 03:32:34;;;;;;;32.55;20.55;;;9.40;74.00;;;;;;4942007;28;20039;-75
2022/03/29 03:35:00;;;;;;;38.58;21.15;;;9.50;74.40;;;;;;4945082;28;20050;-75
2022/03/29 03:37:28;;;;;;;36.08;21.77;;;9.40;74.50;;;;;;4944721;28;20027;-75
2022/03/29 03:39:54;;;;;;;36.05;19.58;;;9.10;75.30;;;;;;4945090;28;20027;-75
2022/03/29 03:42:20;;;;;;;39.15;21.83;;;9.10;75.40;;;;;;4944573;28;20050;-77
2022/03/29 03:44:46;;;;;;;34.10;20.77;;;9.20;75.30;;;;;;4945961;28;20086;-74
2022/03/29 03:47:12;;;;;;;42.53;21.50;;;9.30;75.00;;;;;;4945620;28;20042;-75
2022/03/29 03:49:38;;;;;;;35.85;20.83;;;9.30;75.00;;;;;;4945488;28;20035;-74
2022/03/29 03:52:07;;;;;;;33.92;20.33;;;9.30;75.10;;;;;;4943651;28;20039;-77
2022/03/29 03:54:36;;;;;;;41.55;20.98;;;9.20;75.20;;;;;;4945112;28;20035;-77
2022/03/29 03:57:04;;;;;;;36.63;21.55;;;9.00;75.80;;;;;;4948385;28;20469;-77
2022/03/29 03:59:30;;;;;;;36.22;21.10;;;9.00;76.30;;;;;;4946526;28;20149;-77
2022/03/29 04:01:56;;;;;;;39.67;22.20;;;9.00;76.20;;;;;;4945211;28;20038;-77
2022/03/29 04:04:22;;;;;;;39.90;21.58;;;8.90;76.10;;;;;;4946767;28;20047;-77
2022/03/29 04:06:48;;;;;;;40.65;20.35;;;8.90;76.20;;;;;;4945051;28;20846;-76
2022/03/29 04:09:13;;;;;;;33.88;18.55;;;8.80;76.00;;;;;;4946529;28;20046;-77
2022/03/29 04:11:39;;;;;;;41.30;21.45;;;8.80;75.80;;;;;;4943396;28;20105;-77
2022/03/29 04:14:05;;;;;;;34.90;20.10;;;8.70;75.70;;;;;;4946756;28;20397;-76
2022/03/29 04:16:30;;;;;;;35.42;19.67;;;8.70;75.90;;;;;;4944478;28;20383;-76
2022/03/29 04:18:56;;;;;;;35.30;20.70;;;8.60;76.10;;;;;;4943411;28;20041;-76
2022/03/29 04:21:22;;;;;;;32.42;19.88;;;8.70;76.20;;;;;;4942358;28;20031;-76
2022/03/29 04:23:48;;;;;;;37.47;19.45;;;8.60;76.60;;;;;;4943495;28;20055;-76
2022/03/29 04:26:13;;;;;;;37.65;21.55;;;8.70;76.40;;;;;;4946110;28;20031;-76
2022/03/29 04:28:39;;;;;;;39.25;22.02;;;9.00;76.00;;;;;;4945020;28;20055;-76
2022/03/29 04:31:07;;;;;;;39.17;21.42;;;8.80;76.50;;;;;;4943567;28;20034;-76
2022/03/29 04:33:32;;;;;;;37.05;20.58;;;8.50;76.50;;;;;;4944190;28;20106;-77
2022/03/29 04:35:58;;;;;;;38.20;21.02;;;8.60;76.70;;;;;;4944667;28;20130;-77
2022/03/29 04:38:25;;;;;;;40.80;21.83;;;8.40;77.10;;;;;;4946152;28;20078;-76
2022/03/29 04:40:51;;;;;;;33.28;20.38;;;8.40;76.90;;;;;;4941726;28;20043;-77
2022/03/29 04:43:17;;;;;;;36.85;19.48;;;8.70;76.20;;;;;;4933478;28;20027;-76
2022/03/29 04:45:42;;;;;;;37.03;20.38;;;8.40;76.60;;;;;;4925264;28;20034;-76
2022/03/29 04:48:09;;;;;;;39.60;21.95;;;8.20;77.20;;;;;;4932224;28;20031;-76
2022/03/29 04:50:35;;;;;;;36.83;20.08;;;8.20;77.40;;;;;;4931055;28;20597;-77
2022/03/29 04:53:00;;;;;;;37.65;20.27;;;8.20;77.70;;;;;;4934796;28;20046;-76
2022/03/29 04:55:26;;;;;;;36.97;21.33;;;8.00;77.60;;;;;;4933360;28;20538;-77
2022/03/29 04:57:52;;;;;;;33.35;19.70;;;7.90;78.20;;;;;;4940244;28;20062;-76
2022/03/29 05:00:20;;;;;;;33.85;20.35;;;8.20;77.50;;;;;;4936490;28;20068;-78
2022/03/29 05:02:47;;;;;;;39.38;21.58;;;8.30;77.20;;;;;;4931187;28;20043;-76
2022/03/29 05:05:13;;;;;;;37.10;20.70;;;8.00;77.60;;;;;;4931288;28;20035;-77
2022/03/29 05:07:40;;;;;;;38.35;21.10;;;7.90;78.10;;;;;;4934700;28;20050;-78
2022/03/29 05:10:08;;;;;;;33.88;19.42;;;7.90;78.20;;;;;;4932912;28;20042;-76
2022/03/29 05:12:40;;;;;;;34.88;20.02;;;8.10;77.70;;;;;;4931919;28;20031;-76
2022/03/29 05:15:07;;;;;;;36.28;20.30;;;7.90;77.90;;;;;;4937759;28;20031;-78
2022/03/29 05:17:34;;;;;;;34.45;19.38;;;8.00;77.70;;;;;;4932159;28;20040;-76
2022/03/29 05:20:00;;;;;;;33.97;20.55;;;8.10;77.30;;;;;;4934726;28;20057;-76
2022/03/29 05:22:25;;;;;;;39.85;20.42;;;8.10;77.50;;;;;;4929214;28;20492;-77
2022/03/29 05:24:51;;;;;;;42.45;22.17;;;8.00;77.30;;;;;;4933188;28;20032;-76
2022/03/29 05:27:17;;;;;;;35.30;19.35;;;8.00;77.60;;;;;;4935783;28;21562;-75
2022/03/29 05:29:42;;;;;;;37.25;20.50;;;7.60;78.70;;;;;;4946550;28;20071;-76
2022/03/29 05:32:08;;;;;;;39.80;21.42;;;7.70;78.40;;;;;;4934371;28;20032;-76
2022/03/29 05:34:34;;;;;;;35.58;21.45;;;7.90;78.30;;;;;;4932409;28;20094;-75
2022/03/29 05:36:59;;;;;;;37.67;18.95;;;7.90;78.40;;;;;;4938503;28;20083;-74
2022/03/29 05:39:25;;;;;;;37.67;21.05;;;7.90;78.20;;;;;;4936914;28;20102;-73
2022/03/29 05:41:51;;;;;;;33.00;18.45;;;8.10;77.60;;;;;;4930181;28;20055;-74
2022/03/29 05:44:16;;;;;;;38.70;20.83;;;8.10;77.90;;;;;;4934449;28;20496;-75
2022/03/29 05:49:27;;;;;;;35.37;20.30;;;8.00;78.40;;;;;;4931150;28;20102;-75
2022/03/29 05:51:53;;;;;;;39.90;20.38;;;8.10;78.20;;;;;;4936900;28;20310;-75
2022/03/29 05:54:19;;;;;;;41.28;20.90;;;8.30;77.50;;;;;;4943039;28;20055;-75
2022/03/29 05:56:45;;;;;;;30.95;18.00;;;8.60;77.00;;;;;;4944179;28;20038;-74
2022/03/29 05:59:10;;;;;;;35.60;20.33;;;8.60;77.00;;;;;;4933685;28;20956;-75
2022/03/29 06:01:38;;;;;;;28.08;16.88;;;8.50;77.00;;;;;;4935011;28;20039;-74
2022/03/29 06:04:06;;;;;;;33.20;18.58;;;8.50;76.90;;;;;;4928083;28;20091;-75
2022/03/29 06:06:34;;;;;;;36.70;18.42;;;8.60;76.70;;;;;;4932548;28;20031;-75
2022/03/29 06:09:00;;;;;;;36.17;18.85;;;8.60;76.70;;;;;;4928252;28;20068;-75
2022/03/29 06:11:26;;;;;;;40.70;20.63;;;8.70;77.20;;;;;;4931930;28;20102;-76
2022/03/29 06:13:51;;;;;;;34.33;20.15;;;8.70;77.30;;;;;;4933623;28;20035;-75
2022/03/29 06:16:17;;;;;;;35.67;17.95;;;8.70;78.00;;;;;;4933829;28;20442;-75
2022/03/29 06:18:43;;;;;;;33.70;18.83;;;8.70;77.30;;;;;;4944219;28;20031;-75
2022/03/29 06:21:09;;;;;;;31.85;17.33;;;8.80;77.70;;;;;;4942640;28;20028;-74
2022/03/29 06:23:35;;;;;;;30.85;18.00;;;8.90;76.80;;;;;;4947038;28;20073;-74
2022/03/29 06:26:01;;;;;;;31.08;17.48;;;9.00;76.40;;;;;;4946122;28;20370;-75
2022/03/29 06:28:27;;;;;;;35.88;18.33;;;9.00;75.80;;;;;;4947596;28;20600;-75
2022/03/29 06:30:52;;;;;;;31.02;19.13;;;9.10;77.60;;;;;;4947141;28;20540;-74
2022/03/29 06:33:20;;;;;;;34.50;17.52;;;9.10;78.00;;;;;;4945944;28;20568;-75
2022/03/29 06:35:46;;;;;;;35.03;20.10;;;9.20;76.90;;;;;;4947126;28;20031;-75
2022/03/29 06:38:12;;;;;;;35.67;19.35;;;9.20;75.50;;;;;;4946760;28;20035;-75
2022/03/29 06:40:38;;;;;;;33.67;18.25;;;9.30;75.40;;;;;;4945255;28;20047;-75
2022/03/29 06:43:04;;;;;;;31.00;18.10;;;9.30;75.80;;;;;;4946845;28;20040;-75
2022/03/29 06:45:30;;;;;;;46.70;18.70;;;9.30;75.20;;;;;;4937892;28;20030;-77
2022/03/29 06:47:58;;;;;;;37.10;17.42;;;9.30;75.90;;;;;;4937538;28;20035;-74
2022/03/29 06:50:24;;;;;;;44.45;18.98;;;9.40;75.30;;;;;;4937966;28;20030;-74
2022/03/29 06:52:49;;;;;;;33.40;18.77;;;9.50;75.90;;;;;;4944845;28;20035;-73
2022/03/29 06:55:17;;;;;;;38.40;19.65;;;9.40;77.10;;;;;;4946570;28;20042;-73
2022/03/29 06:57:43;;;;;;;33.05;18.48;;;9.40;76.20;;;;;;4933718;28;20034;-74
2022/03/29 07:00:10;;;;;;;34.88;20.33;;;9.50;76.10;;;;;;4943824;28;20690;-75
2022/03/29 07:02:36;;;;;;;36.47;19.77;;;9.50;75.60;;;;;;4933776;28;20073;-75
2022/03/29 07:05:03;;;;;;;34.10;18.88;;;9.50;74.60;;;;;;4943409;28;20102;-73
2022/03/29 07:07:29;;;;;;;31.90;18.75;;;9.70;75.00;;;;;;4952395;28;20102;-74
2022/03/29 07:13:00;;;;;;;37.60;19.88;;;10.10;75.00;;;;;;4949568;28;20524;-77
2022/03/29 07:15:30;;;;;;;36.40;19.48;;;10.40;75.10;;;;;;4946069;28;20076;-76
2022/03/29 07:17:57;;;;;;;34.85;19.80;;;10.50;75.90;;;;;;4946091;28;20473;-76
2022/03/29 07:20:23;;;;;;;31.17;18.55;;;10.30;75.50;;;;;;4948010;28;20445;-75
2022/03/29 07:22:53;;;;;;;33.58;17.98;;;10.20;74.50;;;;;;4947222;28;20042;-76
2022/03/29 07:25:27;;;;;;;36.38;18.23;;;10.00;73.50;;;;;;4946193;28;20035;-74
2022/03/29 07:27:56;;;;;;;28.88;18.27;;;10.00;73.20;;;;;;4941316;28;20113;-74
2022/03/29 07:30:23;;;;;;;30.30;18.42;;;10.00;73.90;;;;;;4932386;28;21852;-74
2022/03/29 07:32:52;;;;;;;35.10;17.40;;;10.00;72.80;;;;;;4944072;28;20284;-74
2022/03/29 07:35:19;;;;;;;32.13;18.05;;;10.00;72.90;;;;;;4943874;28;20536;-75
2022/03/29 07:37:45;;;;;;;32.38;18.98;;;10.10;73.60;;;;;;4946893;28;20044;-73
2022/03/29 07:40:13;;;;;;;39.70;18.10;;;10.20;73.20;;;;;;4946607;28;20046;-74
2022/03/29 07:42:39;;;;;;;33.20;19.10;;;10.40;73.70;;;;;;4945980;28;20203;-78
2022/03/29 07:45:07;;;;;;;31.33;18.65;;;10.40;73.30;;;;;;4947004;28;20031;-74
2022/03/29 07:47:34;;;;;;;31.50;17.75;;;10.60;72.60;;;;;;4944839;28;20039;-74
2022/03/29 07:50:05;;;;;;;35.30;18.50;;;10.60;72.20;;;;;;4946215;28;20039;-74
2022/03/29 07:52:31;;;;;;;33.28;18.35;;;10.80;73.70;;;;;;4948019;28;20049;-78
2022/03/29 07:54:56;;;;;;;31.80;17.95;;;10.80;71.80;;;;;;4954454;28;20520;-75
2022/03/29 07:57:23;;;;;;;33.58;19.02;;;10.90;71.40;;;;;;4954509;28;20034;-74
2022/03/29 07:59:49;;;;;;;37.30;18.75;;;10.90;71.30;;;;;;4953730;28;20548;-74
2022/03/29 08:02:15;;;;;;;37.05;18.00;;;10.90;73.00;;;;;;4953445;28;20027;-74
2022/03/29 08:04:41;;;;;;;33.58;19.88;;;10.80;73.30;;;;;;4953387;28;20069;-74
2022/03/29 08:07:08;;;;;;;33.25;19.75;;;10.70;72.60;;;;;;4946814;28;20031;-74
2022/03/29 08:09:34;;;;;;;33.90;20.08;;;10.80;72.80;;;;;;4952727;28;20101;-74
2022/03/29 08:12:00;;;;;;;35.47;20.50;;;10.90;73.90;;;;;;4945514;28;20043;-75
2022/03/29 08:14:26;;;;;;;39.75;19.55;;;11.00;74.00;;;;;;4946040;28;20050;-73
2022/03/29 08:16:53;;;;;;;40.75;20.88;;;11.00;74.10;;;;;;4946143;28;20066;-73
2022/03/29 08:19:19;;;;;;;39.70;19.35;;;11.20;73.50;;;;;;4945307;28;20042;-73
2022/03/29 08:21:49;;;;;;;34.97;20.20;;;11.20;73.30;;;;;;4944455;28;20509;-73
2022/03/29 08:24:19;;;;;;;46.92;20.02;;;11.20;72.80;;;;;;4945293;28;20043;-73
2022/03/29 08:26:49;;;;;;;42.78;19.75;;;11.50;73.00;;;;;;4945917;28;20593;-73
2022/03/29 08:29:16;;;;;;;38.28;20.85;;;11.40;72.10;;;;;;4943347;28;20066;-76
2022/03/29 08:31:44;;;;;;;33.65;20.92;;;11.50;72.90;;;;;;4946235;28;20602;-75
2022/03/29 08:34:10;;;;;;;36.05;20.83;;;11.50;71.90;;;;;;4944232;28;20035;-77
2022/03/29 08:36:38;;;;;;;39.92;20.05;;;11.60;71.80;;;;;;4935803;28;20027;-76
2022/03/29 08:39:08;;;;;;;34.17;19.95;;;11.70;72.10;;;;;;4946971;28;20486;-76
2022/03/29 08:41:45;;;;;;;35.10;19.63;;;11.90;71.90;;;;;;4945130;28;20478;-74
2022/03/29 08:44:11;;;;;;;44.92;20.83;;;11.70;71.80;;;;;;4944809;28;20043;-74
2022/03/29 08:46:41;;;;;;;42.10;21.83;;;11.70;72.30;;;;;;4945525;28;20429;-74
2022/03/29 08:49:07;;;;;;;42.00;21.88;;;11.80;72.90;;;;;;4946130;28;20035;-73
2022/03/29 08:51:38;;;;;;;40.40;21.08;;;11.90;71.60;;;;;;4945368;28;20114;-74
2022/03/29 08:54:04;;;;;;;38.47;20.38;;;11.90;71.00;;;;;;4944429;28;20062;-73
2022/03/29 08:56:30;;;;;;;40.08;21.92;;;12.00;71.10;;;;;;4943744;28;20118;-74
2022/03/29 08:58:56;;;;;;;39.97;22.20;;;12.00;71.80;;;;;;4944764;28;20134;-73
2022/03/29 09:01:23;;;;;;;35.67;20.60;;;12.10;71.30;;;;;;4945019;28;20031;-73
2022/03/29 09:04:07;;;;;;;33.38;20.73;;;12.20;71.60;;;;;;4944699;28;20042;-74
2022/03/29 09:06:33;;;;;;;37.72;20.80;;;12.30;71.40;;;;;;4945594;28;20041;-74
2022/03/29 09:08:59;;;;;;;40.13;20.38;;;12.30;71.00;;;;;;4944747;28;20039;-74
2022/03/29 09:11:24;;;;;;;36.70;19.92;;;12.40;70.90;;;;;;4945187;28;20543;-74
2022/03/29 09:14:04;;;;;;;39.05;20.88;;;13.50;70.10;;;;;;4944023;28;20183;-74
2022/03/29 09:16:34;;;;;;;35.58;20.88;;;15.40;66.30;;;;;;4945325;28;20704;-74
2022/03/29 09:19:00;;;;;;;38.88;19.67;;;16.20;66.60;;;;;;4944912;28;20041;-73
2022/03/29 09:21:27;;;;;;;36.15;19.35;;;16.40;64.70;;;;;;4945156;28;20115;-73
2022/03/29 09:24:22;;;;;;;38.35;20.58;;;16.90;63.60;;;;;;4943042;28;20054;-74
2022/03/29 09:26:52;;;;;;;37.25;19.85;;;16.60;63.80;;;;;;4944045;28;20079;-74
2022/03/29 09:29:22;;;;;;;33.70;20.70;;;16.80;63.40;;;;;;4941657;28;20054;-74
2022/03/29 09:32:06;;;;;;;37.35;19.83;;;17.60;62.80;;;;;;4943412;28;20043;-73
2022/03/29 09:34:33;;;;;;;38.38;20.17;;;17.70;62.30;;;;;;4945263;28;20031;-74
2022/03/29 09:37:01;;;;;;;39.88;22.13;;;18.10;62.40;;;;;;4945706;28;20036;-74
2022/03/29 09:39:45;;;;;;;184.50;30.15;;;18.90;61.10;;;;;;4945150;28;22145;-75
2022/03/29 09:42:12;;;;;;;193.68;31.77;;;18.40;61.50;;;;;;4944386;28;20043;-75
2022/03/29 09:44:52;;;;;;;79.45;23.92;;;17.90;61.20;;;;;;4944779;28;20062;-75
2022/03/29 09:47:20;;;;;;;38.05;19.25;;;18.10;60.80;;;;;;4944921;28;20038;-74
2022/03/29 09:49:55;;;;;;;33.50;20.08;;;18.50;61.20;;;;;;4944771;28;20039;-74
2022/03/29 09:52:31;;;;;;;36.17;20.52;;;18.40;60.50;;;;;;4943367;28;20062;-74
2022/03/29 09:55:13;;;;;;;35.28;19.27;;;18.40;61.50;;;;;;4944846;28;20031;-73
2022/03/29 09:57:48;;;;;;;61.10;23.08;;;17.90;61.70;;;;;;4948661;28;20458;-73
2022/03/29 10:00:19;;;;;;;32.78;18.80;;;16.90;61.50;;;;;;4949059;28;20027;-73
2022/03/29 10:02:46;;;;;;;33.42;19.10;;;15.80;62.80;;;;;;4947443;28;20613;-73
2022/03/29 10:05:15;;;;;;;36.05;20.80;;;15.00;63.30;;;;;;4948047;28;20094;-74
2022/03/29 10:09:25;;;;;;;36.40;20.33;;;14.80;64.80;;;;;;4945544;28;20031;-74
2022/03/29 10:10:45;;;;;;;34.67;20.13;;;14.60;63.80;;;;;;4958375;28;20043;-73
2022/03/29 10:13:12;;;;;;;33.72;18.98;;;14.70;64.50;;;;;;4967363;28;20465;-73
2022/03/29 10:15:41;;;;;;;30.70;19.65;;;14.70;64.90;;;;;;4955094;28;20517;-74
2022/03/29 10:18:08;;;;;;;33.80;20.52;;;14.60;64.20;;;;;;4944252;28;20089;-74
2022/03/29 10:20:35;;;;;;;32.90;20.33;;;14.60;64.40;;;;;;4947925;28;20126;-74
2022/03/29 10:23:01;;;;;;;31.88;20.48;;;14.60;63.60;;;;;;4947853;28;20031;-74
2022/03/29 10:25:28;;;;;;;30.70;19.80;;;14.40;63.50;;;;;;4947965;28;20031;-74
2022/03/29 10:27:56;;;;;;;39.65;20.33;;;14.50;64.50;;;;;;4947135;28;20039;-73
2022/03/29 10:30:41;;;;;;;36.83;21.40;;;14.60;64.10;;;;;;4948076;28;20031;-73
2022/03/29 10:33:24;;;;;;;38.67;19.58;;;14.90;64.80;;;;;;4948115;28;20035;-74
2022/03/29 10:35:58;;;;;;;36.80;20.05;;;15.10;64.20;;;;;;4948405;28;20043;-74
2022/03/29 10:38:43;;;;;;;32.42;19.17;;;15.30;64.40;;;;;;4945127;28;20126;-73
2022/03/29 10:41:24;;;;;;;;;;;15.10;63.60;;;;;;4946735;28;20059;-74
2022/03/29 10:44:08;;;;;;;30.73;19.52;;;15.20;63.40;;;;;;4947952;28;20323;-74
2022/03/29 10:46:41;;;;;;;37.53;21.70;;;15.40;62.90;;;;;;4948691;28;20697;-73
2022/03/29 10:49:20;;;;;;;34.42;20.05;;;15.30;62.60;;;;;;4950092;28;20035;-74
2022/03/29 10:51:47;;;;;;;38.83;21.50;;;15.40;62.70;;;;;;4950808;28;20028;-74
2022/03/29 10:54:43;;;;;;;33.58;19.77;;;15.80;63.60;;;;;;4949253;28;20039;-74
2022/03/29 10:57:28;;;;;;;33.47;20.38;;;15.90;62.20;;;;;;4950472;28;20124;-74
2022/03/29 11:00:10;;;;;;;31.80;19.60;;;16.40;63.30;;;;;;4950805;28;20043;-74
2022/03/29 11:02:36;;;;;;;37.25;20.55;;;16.10;61.70;;;;;;4950428;28;20027;-74
2022/03/29 11:05:05;;;;;;;36.40;20.40;;;16.30;63.60;;;;;;4949118;28;20046;-73
2022/03/29 11:07:53;;;;;;;39.97;22.05;;;16.10;62.40;;;;;;4949703;28;20027;-73
2022/03/29 11:10:23;;;;;;;32.10;19.90;;;16.30;62.30;;;;;;4950683;28;20482;-74
2022/03/29 11:12:51;;;;;;;34.35;21.02;;;16.40;61.40;;;;;;4950061;28;20517;-73
2022/03/29 11:15:35;;;;;;;35.90;20.95;;;16.50;61.70;;;;;;4948623;28;20123;-73
2022/03/29 11:18:04;;;;;;;35.00;21.45;;;16.50;62.50;;;;;;4949520;28;20031;-73
2022/03/29 11:20:39;;;;;;;35.78;22.33;;;16.60;62.50;;;;;;4950481;28;20486;-73
2022/03/29 11:23:07;;;;;;;37.05;22.35;;;16.70;62.30;;;;;;4950547;28;20036;-73
2022/03/29 11:25:45;;;;;;;37.85;21.08;;;16.70;61.00;;;;;;4949122;28;20051;-73
2022/03/29 11:28:16;;;;;;;32.47;21.00;;;16.50;61.70;;;;;;4949906;28;20035;-73
2022/03/29 11:30:42;;;;;;;38.47;22.38;;;16.60;62.50;;;;;;4950474;28;20037;-75
2022/03/29 11:33:10;;;;;;;38.08;23.27;;;16.50;61.60;;;;;;4948812;28;20038;-73
2022/03/29 11:35:38;;;;;;;34.88;21.58;;;16.70;61.70;;;;;;4950627;28;20038;-73
2022/03/29 11:38:15;;;;;;;33.97;22.05;;;16.70;62.20;;;;;;4948682;28;20027;-73
2022/03/29 11:40:42;;;;;;;42.22;23.85;;;16.90;61.90;;;;;;4949660;28;20088;-73
2022/03/29 11:43:14;;;;;;;36.92;23.58;;;17.10;61.20;;;;;;4948655;28;20086;-73
2022/03/29 11:45:41;;;;;;;36.35;24.73;;;17.10;62.30;;;;;;4943757;28;20035;-74
2022/03/29 11:48:12;;;;;;;42.17;23.90;;;16.60;61.60;;;;;;4937226;28;21210;-74
2022/03/29 11:50:45;;;;;;;39.95;23.80;;;16.80;62.90;;;;;;4941041;28;20039;-74
2022/03/29 11:53:23;;;;;;;42.45;26.10;;;17.30;63.20;;;;;;4949891;28;20035;-73
2022/03/29 11:56:03;;;;;;;44.03;25.23;;;16.90;61.40;;;;;;4950090;28;20039;-73
2022/03/29 11:58:35;;;;;;;46.58;25.23;;;16.70;61.70;;;;;;4950210;28;20118;-73
2022/03/29 12:01:04;;;;;;;39.30;23.98;;;17.10;62.70;;;;;;4947174;28;20617;-74
2022/03/29 12:03:51;;;;;;;42.88;25.80;;;17.40;61.50;;;;;;4949467;28;20047;-73
2022/03/29 12:06:23;;;;;;;34.72;24.02;;;17.30;61.40;;;;;;4949030;28;20393;-74
2022/03/29 12:08:59;;;;;;;44.42;24.65;;;17.40;61.80;;;;;;4948314;28;20624;-73
2022/03/29 12:11:37;;;;;;;42.63;23.95;;;17.90;62.30;;;;;;4948064;28;20035;-74
2022/03/29 12:14:14;;;;;;;41.90;25.23;;;17.60;61.30;;;;;;4949435;28;20485;-73
2022/03/29 12:16:42;;;;;;;52.00;25.35;;;17.50;61.60;;;;;;4966844;28;20070;-74
2022/03/29 12:19:13;;;;;;;35.50;22.33;;;17.60;62.30;;;;;;4967492;28;20043;-74
2022/03/29 12:21:40;;;;;;;41.80;24.60;;;17.50;61.50;;;;;;4947491;28;20038;-74
2022/03/29 12:24:07;;;;;;;41.70;25.48;;;17.60;61.70;;;;;;4949423;28;20035;-74
2022/03/29 12:26:37;;;;;;;44.03;24.23;;;17.60;61.90;;;;;;4949054;28;20035;-74
2022/03/29 12:29:07;;;;;;;48.22;27.40;;;17.50;61.90;;;;;;4947876;28;20042;-73
2022/03/29 12:31:36;;;;;;;59.58;26.70;;;17.60;62.20;;;;;;4947500;28;20361;-74
2022/03/29 12:34:02;;;;;;;45.60;27.52;;;17.60;61.90;;;;;;4949446;28;20057;-73
2022/03/29 12:36:28;;;;;;;54.70;29.88;;;17.60;62.30;;;;;;4948680;28;20497;-73
2022/03/29 12:39:06;;;;;;;49.90;28.08;;;17.70;61.90;;;;;;4948281;28;20462;-74
2022/03/29 12:41:32;;;;;;;41.13;26.70;;;17.70;62.10;;;;;;4948620;28;20109;-73
2022/03/29 12:43:58;;;;;;;42.10;26.42;;;17.90;62.00;;;;;;4949235;28;20082;-74
2022/03/29 12:46:24;;;;;;;45.22;25.92;;;17.90;61.40;;;;;;4948368;28;20039;-73
2022/03/29 12:48:50;;;;;;;46.17;27.30;;;17.90;61.00;;;;;;4946478;28;20038;-73